createdAt,value
2022-08-17T00:02:26.467Z,40.95
2022-08-17T00:04:54.573Z,36.40
2022-08-17T00:07:21.592Z,38.75
2022-08-17T00:09:48.369Z,39.47
2022-08-17T00:12:42.217Z,38.58
2022-08-17T00:15:01.685Z,36.53
2022-08-17T00:17:28.483Z,44.33
2022-08-17T00:19:55.066Z,38.55
2022-08-17T00:22:31.580Z,38.33
2022-08-17T00:25:05.391Z,38.97
2022-08-17T00:27:32.003Z,41.15
2022-08-17T00:29:58.639Z,40.63
2022-08-17T00:33:12.525Z,42.10
2022-08-17T00:35:14.691Z,36.97
2022-08-17T00:37:41.610Z,45.65
2022-08-17T00:40:11.361Z,43.33
2022-08-17T00:42:39.360Z,46.40
2022-08-17T00:45:08.396Z,52.33
2022-08-17T00:47:35.267Z,50.28
2022-08-17T00:50:02.289Z,48.75
2022-08-17T00:52:35.539Z,50.20
2022-08-17T00:55:02.804Z,48.30
2022-08-17T00:57:32.926Z,45.17
2022-08-17T01:00:04.363Z,52.80
2022-08-17T01:02:42.549Z,44.95
2022-08-17T01:05:18.929Z,48.33
2022-08-17T01:07:47.896Z,51.35
2022-08-17T01:10:59.224Z,43.03
2022-08-17T01:13:04.102Z,50.83
2022-08-17T01:15:35.471Z,47.22
2022-08-17T01:18:03.076Z,50.53
2022-08-17T01:20:29.716Z,48.38
2022-08-17T01:22:56.315Z,52.88
2022-08-17T01:25:23.210Z,51.85
2022-08-17T01:27:50.027Z,52.40
2022-08-17T01:30:58.970Z,50.80
2022-08-17T01:33:04.704Z,53.22
2022-08-17T01:35:31.609Z,59.38
2022-08-17T01:37:58.220Z,58.35
2022-08-17T01:40:39.067Z,54.75
2022-08-17T01:43:27.127Z,52.72
2022-08-17T01:46:02.813Z,59.80
2022-08-17T01:48:38.031Z,62.45
2022-08-17T01:51:07.233Z,56.95
2022-08-17T01:53:42.418Z,57.03
2022-08-17T01:58:38.682Z,63.50
2022-08-17T02:01:06.775Z,64.75
2022-08-17T02:03:35.414Z,59.88
2022-08-17T02:06:02.734Z,58.75
2022-08-17T02:08:37.213Z,55.05
2022-08-17T02:11:11.674Z,52.78
2022-08-17T02:13:39.128Z,55.63
2022-08-17T02:16:06.413Z,55.17
2022-08-17T02:18:33.139Z,56.63
2022-08-17T02:21:00.114Z,56.08
2022-08-17T02:23:29.380Z,53.00
2022-08-17T02:25:59.408Z,49.80
2022-08-17T02:28:26.706Z,52.15
2022-08-17T02:31:01.383Z,55.60
2022-08-17T02:33:41.883Z,53.65
2022-08-17T02:36:12.900Z,57.03
2022-08-17T02:38:40.697Z,59.08
2022-08-17T02:41:08.540Z,56.15
2022-08-17T02:43:35.516Z,50.72
2022-08-17T02:46:02.118Z,53.40
2022-08-17T02:48:31.694Z,57.95
2022-08-17T02:50:59.461Z,56.33
2022-08-17T02:53:26.173Z,58.83
2022-08-17T02:55:53.378Z,63.28
2022-08-17T02:58:35.041Z,65.50
2022-08-17T03:01:04.475Z,61.28
2022-08-17T03:03:31.053Z,59.20
2022-08-17T03:05:57.946Z,59.50
2022-08-17T03:08:25.593Z,59.25
2022-08-17T03:10:52.714Z,62.30
2022-08-17T03:13:20.163Z,58.97
2022-08-17T03:15:47.606Z,58.35
2022-08-17T03:18:24.954Z,63.75
2022-08-17T03:20:59.832Z,62.53
2022-08-17T03:23:27.792Z,56.45
2022-08-17T03:25:56.509Z,58.00
2022-08-17T03:28:23.976Z,57.80
2022-08-17T03:30:51.509Z,66.65
2022-08-17T03:33:19.401Z,65.68
2022-08-17T03:35:46.161Z,61.42
2022-08-17T03:38:15.047Z,71.03
2022-08-17T03:40:56.437Z,63.70
2022-08-17T03:43:27.796Z,64.18
2022-08-17T03:46:28.582Z,57.17
2022-08-17T03:49:18.226Z,62.47
2022-08-17T03:52:03.292Z,64.03
2022-08-17T03:54:48.517Z,53.13
2022-08-17T03:57:15.129Z,54.50
2022-08-17T03:59:41.732Z,55.15
2022-08-17T04:02:13.072Z,51.65
2022-08-17T04:04:40.286Z,51.60
2022-08-17T04:07:07.541Z,54.30
2022-08-17T04:09:34.582Z,52.35
2022-08-17T04:12:04.895Z,52.80
2022-08-17T04:14:52.076Z,49.05
2022-08-17T04:17:21.726Z,48.55
2022-08-17T04:19:48.320Z,45.00
2022-08-17T04:22:30.712Z,44.17
2022-08-17T04:25:01.001Z,47.17
2022-08-17T04:27:27.569Z,46.35
2022-08-17T04:29:55.284Z,43.40
2022-08-17T04:33:03.387Z,47.67
2022-08-17T04:35:10.064Z,47.72
2022-08-17T04:37:36.690Z,51.10
2022-08-17T04:40:22.563Z,41.22
2022-08-17T04:43:18.597Z,42.35
2022-08-17T04:45:55.544Z,42.40
2022-08-17T04:48:35.611Z,40.85
2022-08-17T04:51:12.403Z,43.92
2022-08-17T04:53:41.798Z,38.33
2022-08-17T04:56:11.819Z,43.30
2022-08-17T04:58:49.939Z,42.55
2022-08-17T05:01:23.102Z,38.65
2022-08-17T05:03:51.136Z,38.13
2022-08-17T05:06:17.742Z,39.65
2022-08-17T05:08:44.314Z,30.38
2022-08-17T05:11:11.015Z,31.52
2022-08-17T05:13:37.571Z,29.15
2022-08-17T05:16:05.378Z,33.50
2022-08-17T05:18:32.896Z,26.00
2022-08-17T05:20:59.523Z,24.25
2022-08-17T05:23:41.956Z,24.80
2022-08-17T05:26:25.645Z,25.88
2022-08-17T05:28:57.225Z,22.83
2022-08-17T05:31:26.898Z,20.83
2022-08-17T05:33:53.758Z,20.38
2022-08-17T05:36:37.946Z,22.63
2022-08-17T05:39:07.283Z,20.73
2022-08-17T05:41:33.875Z,19.73
2022-08-17T05:44:00.564Z,19.73
2022-08-17T05:46:39.961Z,20.17
2022-08-17T05:49:08.541Z,20.17
2022-08-17T05:51:53.795Z,18.98
2022-08-17T05:57:06.086Z,15.60
2022-08-17T05:59:55.103Z,16.20
2022-08-17T06:02:35.838Z,18.35
2022-08-17T06:05:17.453Z,18.05
2022-08-17T06:08:00.128Z,14.15
2022-08-17T06:10:47.858Z,19.77
2022-08-17T06:13:50.984Z,18.80
2022-08-17T06:16:33.270Z,16.20
2022-08-17T06:19:06.138Z,20.83
2022-08-17T06:21:39.432Z,15.50
2022-08-17T06:24:27.567Z,16.58
2022-08-17T06:27:01.664Z,18.48
2022-08-17T06:29:37.388Z,19.90
2022-08-17T06:32:09.904Z,19.15
2022-08-17T06:34:39.832Z,19.25
2022-08-17T06:37:36.332Z,20.40
2022-08-17T06:40:09.040Z,19.55
2022-08-17T06:43:04.010Z,24.45
2022-08-17T06:46:04.117Z,20.88
2022-08-17T06:48:42.711Z,27.08
2022-08-17T06:51:25.983Z,21.02
2022-08-17T06:54:19.575Z,20.27
2022-08-17T06:57:07.309Z,18.80
2022-08-17T06:59:56.048Z,17.70
2022-08-17T07:02:52.415Z,20.67
2022-08-17T07:05:21.046Z,17.27
2022-08-17T07:08:17.069Z,18.25
2022-08-17T07:10:48.246Z,19.67
2022-08-17T07:13:38.305Z,17.30
2022-08-17T07:16:15.441Z,17.00
2022-08-17T07:18:43.469Z,19.58
2022-08-17T07:21:30.755Z,17.42
2022-08-17T07:24:29.209Z,13.90
2022-08-17T07:27:07.598Z,13.85
2022-08-17T07:29:39.968Z,13.77
2022-08-17T07:32:08.555Z,13.52
2022-08-17T07:35:15.430Z,14.70
2022-08-17T07:38:25.240Z,12.95
2022-08-17T07:41:02.118Z,18.20
2022-08-17T07:43:48.572Z,14.68
2022-08-17T07:46:44.401Z,10.73
2022-08-17T07:49:11.141Z,14.73
2022-08-17T07:51:40.786Z,14.10
2022-08-17T07:54:16.613Z,13.15
2022-08-17T07:56:48.006Z,10.52
2022-08-17T07:59:25.548Z,10.88
2022-08-17T08:01:56.796Z,12.32
2022-08-17T08:05:01.404Z,9.52
2022-08-17T08:07:50.425Z,10.88
2022-08-17T08:10:35.574Z,13.02
2022-08-17T08:13:25.082Z,12.45
2022-08-17T08:16:10.837Z,12.68
2022-08-17T08:18:55.270Z,12.48
2022-08-17T08:21:38.109Z,13.15
2022-08-17T08:24:10.903Z,12.23
2022-08-17T08:26:46.412Z,11.55
2022-08-17T08:29:28.335Z,11.15
2022-08-17T08:32:17.414Z,10.38
2022-08-17T08:35:03.652Z,12.02
2022-08-17T08:37:56.251Z,10.68
2022-08-17T08:40:32.008Z,11.00
2022-08-17T08:43:36.355Z,9.43
2022-08-17T08:46:08.765Z,11.43
2022-08-17T08:48:57.944Z,13.45
2022-08-17T08:51:46.470Z,8.82
2022-08-17T08:54:35.229Z,13.40
2022-08-17T08:57:26.691Z,9.95
2022-08-17T09:00:16.586Z,11.40
2022-08-17T09:03:04.780Z,13.38
2022-08-17T09:05:31.279Z,11.50
2022-08-17T09:08:11.117Z,10.30
2022-08-17T09:10:48.025Z,9.57
2022-08-17T09:13:40.926Z,12.18
2022-08-17T09:16:07.464Z,9.85
2022-08-17T09:19:00.555Z,10.57
2022-08-17T09:21:45.795Z,13.88
2022-08-17T09:24:43.622Z,11.90
2022-08-17T09:27:22.097Z,11.43
2022-08-17T09:29:58.960Z,12.05
2022-08-17T09:32:42.647Z,10.85
2022-08-17T09:35:36.766Z,10.95
2022-08-17T09:38:42.757Z,9.40
2022-08-17T09:41:33.433Z,9.50
2022-08-17T09:44:23.686Z,12.43
2022-08-17T09:47:06.013Z,8.68
2022-08-17T09:49:40.489Z,12.63
2022-08-17T09:52:16.414Z,15.00
2022-08-17T09:54:46.169Z,9.82
2022-08-17T09:57:43.053Z,10.70
2022-08-17T10:00:18.868Z,8.85
2022-08-17T10:02:53.490Z,10.52
2022-08-17T10:05:39.698Z,13.85
2022-08-17T10:08:27.816Z,10.13
2022-08-17T10:10:56.670Z,14.52
2022-08-17T10:14:35.896Z,12.23
2022-08-17T10:17:11.258Z,11.48
2022-08-17T10:19:55.862Z,20.23
2022-08-17T10:22:57.079Z,10.30
2022-08-17T10:25:59.526Z,11.88
2022-08-17T10:28:36.470Z,10.20
2022-08-17T10:34:07.748Z,13.32
2022-08-17T10:36:37.956Z,9.40
2022-08-17T10:39:25.550Z,16.65
2022-08-17T10:41:57.914Z,10.20
2022-08-17T10:44:48.429Z,9.10
2022-08-17T10:47:18.114Z,10.07
2022-08-17T10:49:54.173Z,9.85
2022-08-17T10:52:21.829Z,12.93
2022-08-17T10:55:16.188Z,11.75
2022-08-17T10:57:45.545Z,8.55
2022-08-17T11:00:15.581Z,10.20
2022-08-17T11:02:49.895Z,12.80
2022-08-17T11:05:34.647Z,11.02
2022-08-17T11:08:13.099Z,10.47
2022-08-17T11:11:16.797Z,8.50
2022-08-17T11:14:08.858Z,7.97
2022-08-17T11:16:53.478Z,17.52
2022-08-17T11:19:32.156Z,12.55
2022-08-17T11:22:13.913Z,13.52
2022-08-17T11:24:47.943Z,10.00
2022-08-17T11:27:26.626Z,10.63
2022-08-17T11:30:01.772Z,13.25
2022-08-17T11:32:38.186Z,15.93
2022-08-17T11:35:20.493Z,9.63
2022-08-17T11:38:16.327Z,11.05
2022-08-17T11:41:01.484Z,9.02
2022-08-17T11:44:02.016Z,12.45
2022-08-17T11:47:28.186Z,10.30
2022-08-17T11:50:42.730Z,9.82
2022-08-17T11:54:03.575Z,11.02
2022-08-17T11:56:50.808Z,7.63
2022-08-17T11:59:45.975Z,12.25
2022-08-17T12:02:34.992Z,10.02
2022-08-17T12:05:09.766Z,9.23
2022-08-17T12:08:04.625Z,12.55
2022-08-17T12:10:35.470Z,13.60
2022-08-17T12:13:10.362Z,11.43
2022-08-17T12:18:07.929Z,10.23
2022-08-17T12:20:42.686Z,9.63
2022-08-17T12:23:15.245Z,11.85
2022-08-17T12:26:08.262Z,14.50
2022-08-17T12:28:38.780Z,15.98
2022-08-17T12:31:20.573Z,14.05
2022-08-17T12:33:48.109Z,14.30
2022-08-17T12:36:18.890Z,13.40
2022-08-17T12:38:53.918Z,9.27
2022-08-17T12:41:34.251Z,12.23
2022-08-17T12:44:05.796Z,17.42
2022-08-17T12:46:45.613Z,17.00
2022-08-17T12:49:28.967Z,18.92
2022-08-17T12:52:07.150Z,10.30
2022-08-17T12:55:01.864Z,15.73
2022-08-17T12:57:33.702Z,9.73
2022-08-17T13:00:22.054Z,12.25
2022-08-17T13:02:52.658Z,10.02
2022-08-17T13:05:28.327Z,10.38
2022-08-17T13:07:57.177Z,9.48
2022-08-17T13:10:33.101Z,9.18
2022-08-17T13:13:06.049Z,15.80
2022-08-17T13:15:44.490Z,9.98
2022-08-17T13:18:36.488Z,12.15
2022-08-17T13:21:03.197Z,9.93
2022-08-17T13:23:32.362Z,9.68
2022-08-17T13:26:07.084Z,12.98
2022-08-17T13:28:36.640Z,9.38
2022-08-17T13:31:41.406Z,9.40
2022-08-17T13:34:33.533Z,12.20
2022-08-17T13:37:26.877Z,10.52
2022-08-17T13:40:13.863Z,11.65
2022-08-17T13:42:51.680Z,8.82
2022-08-17T13:45:35.390Z,16.63
2022-08-17T13:48:06.378Z,10.52
2022-08-17T13:50:33.311Z,12.40
2022-08-17T13:52:59.953Z,12.52
2022-08-17T13:55:29.073Z,10.48
2022-08-17T13:58:03.928Z,9.45
2022-08-17T14:00:36.461Z,11.32
2022-08-17T14:03:05.317Z,19.52
2022-08-17T14:05:32.503Z,15.85
2022-08-17T14:08:02.053Z,16.63
2022-08-17T14:10:36.196Z,13.30
2022-08-17T14:13:03.442Z,11.15
2022-08-17T14:15:56.154Z,12.38
2022-08-17T14:18:55.237Z,9.68
2022-08-17T14:21:08.486Z,8.98
2022-08-17T14:23:36.602Z,8.93
2022-08-17T14:26:03.197Z,7.38
2022-08-17T14:28:29.761Z,6.38
2022-08-17T14:30:56.364Z,5.25
2022-08-17T14:33:24.695Z,4.65
2022-08-17T14:35:55.905Z,5.22
2022-08-17T14:38:22.523Z,8.35
2022-08-17T14:40:49.410Z,8.07
2022-08-17T14:43:15.998Z,10.27
2022-08-17T14:45:43.524Z,9.65
2022-08-17T14:48:10.965Z,5.47
2022-08-17T14:50:40.968Z,7.57
2022-08-17T14:53:10.931Z,8.82
2022-08-17T14:55:40.724Z,8.30
2022-08-17T14:58:08.981Z,9.38
2022-08-17T15:00:36.534Z,11.13
2022-08-17T15:03:03.692Z,13.20
2022-08-17T15:05:33.725Z,11.82
2022-08-17T15:08:01.897Z,11.75
2022-08-17T15:10:29.835Z,15.27
2022-08-17T15:12:57.408Z,13.43
2022-08-17T15:15:24.364Z,15.30
2022-08-17T15:17:51.677Z,14.30
2022-08-17T15:20:24.923Z,14.57
2022-08-17T15:23:00.818Z,16.70
2022-08-17T15:25:30.180Z,17.00
2022-08-17T15:27:56.959Z,17.63
2022-08-17T15:30:24.690Z,21.35
2022-08-17T15:32:55.309Z,19.67
2022-08-17T15:35:27.338Z,19.45
2022-08-17T15:38:09.822Z,27.08
2022-08-17T15:40:39.242Z,26.00
2022-08-17T15:43:12.760Z,24.30
2022-08-17T15:45:40.173Z,26.98
2022-08-17T15:48:07.154Z,23.30
2022-08-17T15:50:33.771Z,14.77
2022-08-17T15:53:02.091Z,14.07
2022-08-17T15:55:30.854Z,13.18
2022-08-17T15:57:57.597Z,10.27
2022-08-17T16:00:24.266Z,11.38
2022-08-17T16:03:13.848Z,13.65
2022-08-17T16:05:37.700Z,13.73
2022-08-17T16:08:07.179Z,9.18
2022-08-17T16:10:35.040Z,13.10
2022-08-17T16:13:04.140Z,11.70
2022-08-17T16:15:31.734Z,10.15
2022-08-17T16:17:58.485Z,9.20
2022-08-17T16:20:25.084Z,14.15
2022-08-17T16:22:51.905Z,8.40
2022-08-17T16:25:21.997Z,11.32
2022-08-17T16:27:53.508Z,15.43
2022-08-17T16:30:23.706Z,10.05
2022-08-17T16:32:52.010Z,13.07
2022-08-17T16:35:21.290Z,11.75
2022-08-17T16:37:48.292Z,10.55
2022-08-17T16:40:17.114Z,11.27
2022-08-17T16:42:45.936Z,14.52
2022-08-17T16:45:16.957Z,16.17
2022-08-17T16:47:43.712Z,16.70
2022-08-17T16:50:13.472Z,19.50
2022-08-17T16:52:41.301Z,13.13
2022-08-17T16:55:13.160Z,16.00
2022-08-17T16:57:49.976Z,17.80
2022-08-17T17:00:19.482Z,16.95
2022-08-17T17:02:49.563Z,15.73
2022-08-17T17:05:48.451Z,17.08
2022-08-17T17:08:30.418Z,17.55
2022-08-17T17:10:59.556Z,21.52
2022-08-17T17:13:34.960Z,19.75
2022-08-17T17:16:26.504Z,19.35
2022-08-17T17:19:27.745Z,23.15
2022-08-17T17:22:24.506Z,18.58
2022-08-17T17:25:00.523Z,23.30
2022-08-17T17:27:30.280Z,23.60
2022-08-17T17:30:09.484Z,25.45
2022-08-17T17:33:10.916Z,19.83
2022-08-17T17:35:55.558Z,19.42
2022-08-17T17:38:39.306Z,29.90
2022-08-17T17:41:12.336Z,19.40
2022-08-17T17:43:41.045Z,23.23
2022-08-17T17:46:39.779Z,25.25
2022-08-17T17:49:06.594Z,24.30
2022-08-17T17:52:06.888Z,18.80
2022-08-17T17:54:38.293Z,23.27
2022-08-17T17:57:21.414Z,20.30
2022-08-17T18:00:07.194Z,22.92
2022-08-17T18:02:51.238Z,17.60
2022-08-17T18:05:39.040Z,19.50
2022-08-17T18:08:32.207Z,20.73
2022-08-17T18:11:25.138Z,18.92
2022-08-17T18:14:14.421Z,27.98
2022-08-17T18:16:42.967Z,19.48
2022-08-17T18:19:15.242Z,22.30
2022-08-17T18:21:46.963Z,19.10
2022-08-17T18:24:13.804Z,20.48
2022-08-17T18:26:44.964Z,21.70
2022-08-17T18:29:42.723Z,21.67
2022-08-17T18:32:22.210Z,23.90
2022-08-17T18:35:09.093Z,19.00
2022-08-17T18:37:35.686Z,21.08
2022-08-17T18:40:36.173Z,21.80
2022-08-17T18:43:11.721Z,19.75
2022-08-17T18:45:50.186Z,17.02
2022-08-17T18:48:30.567Z,18.90
2022-08-17T18:51:21.041Z,17.27
2022-08-17T18:54:05.262Z,23.38
2022-08-17T18:56:34.836Z,19.35
2022-08-17T18:59:27.029Z,20.60
2022-08-17T19:01:58.197Z,17.42
2022-08-17T19:05:05.067Z,19.90
2022-08-17T19:07:40.937Z,20.50
2022-08-17T19:10:28.781Z,24.70
2022-08-17T19:13:12.375Z,20.48
2022-08-17T19:16:13.864Z,23.38
2022-08-17T19:18:59.971Z,26.35
2022-08-17T19:21:44.623Z,26.57
2022-08-17T19:24:19.621Z,25.23
2022-08-17T19:32:12.448Z,30.02
2022-08-17T19:34:40.599Z,30.05
2022-08-17T19:37:29.851Z,30.17
2022-08-17T19:40:02.368Z,26.60
2022-08-17T19:43:06.604Z,38.90
2022-08-17T19:45:51.510Z,32.95
2022-08-17T19:48:35.659Z,31.27
2022-08-17T19:51:15.630Z,32.47
2022-08-17T19:54:07.957Z,29.98
2022-08-17T19:56:54.491Z,23.88
2022-08-17T19:59:48.628Z,32.75
2022-08-17T20:02:30.347Z,30.30
2022-08-17T20:05:02.014Z,26.73
2022-08-17T20:08:03.444Z,23.23
2022-08-17T20:10:54.876Z,30.75
2022-08-17T20:13:33.998Z,28.27
2022-08-17T20:16:01.647Z,28.50
2022-08-17T20:18:33.801Z,31.48
2022-08-17T20:21:20.076Z,25.20
2022-08-17T20:24:13.103Z,23.60
2022-08-17T20:26:59.677Z,25.35
2022-08-17T20:29:40.415Z,30.70
2022-08-17T20:32:21.199Z,25.95
2022-08-17T20:34:47.928Z,25.67
2022-08-17T20:37:14.529Z,32.15
2022-08-17T20:39:42.785Z,28.20
2022-08-17T20:42:22.066Z,26.85
2022-08-17T20:44:52.554Z,30.27
2022-08-17T20:47:27.020Z,29.15
2022-08-17T20:50:25.453Z,32.50
2022-08-17T20:52:55.482Z,27.05
2022-08-17T20:55:35.281Z,27.52
2022-08-17T20:58:23.059Z,30.95
2022-08-17T21:00:59.054Z,27.90
2022-08-17T21:03:28.383Z,26.08
2022-08-17T21:06:18.008Z,27.92
2022-08-17T21:09:12.700Z,30.73
2022-08-17T21:12:03.994Z,23.00
2022-08-17T21:14:59.778Z,29.27
2022-08-17T21:17:50.138Z,25.52
2022-08-17T21:20:39.559Z,24.77
2022-08-17T21:23:43.298Z,28.52
2022-08-17T21:26:23.672Z,29.38
2022-08-17T21:29:29.975Z,34.88
2022-08-17T21:32:03.342Z,22.70
2022-08-17T21:34:32.997Z,28.92
2022-08-17T21:37:23.475Z,30.08
2022-08-17T21:40:18.144Z,29.40
2022-08-17T21:42:50.249Z,33.60
2022-08-17T21:45:38.876Z,27.63
2022-08-17T21:48:24.111Z,32.65
2022-08-17T21:51:21.762Z,30.05
2022-08-17T21:53:51.269Z,28.58
2022-08-17T21:56:33.669Z,36.10
2022-08-17T21:59:27.294Z,32.13
2022-08-17T22:01:59.697Z,34.30
2022-08-17T22:04:32.026Z,37.67
2022-08-17T22:07:01.678Z,38.63
2022-08-17T22:09:41.397Z,38.15
2022-08-17T22:12:20.232Z,31.85
2022-08-17T22:14:55.697Z,38.13
2022-08-17T22:17:35.554Z,35.58
2022-08-17T22:20:14.471Z,38.97
2022-08-17T22:23:08.865Z,30.33
2022-08-17T22:25:41.367Z,33.08
2022-08-17T22:28:12.335Z,31.42
2022-08-17T22:30:58.300Z,33.35
2022-08-17T22:33:49.232Z,32.60
2022-08-17T22:36:25.896Z,33.08
2022-08-17T22:39:05.575Z,31.10
2022-08-17T22:41:54.358Z,38.45
2022-08-17T22:44:37.727Z,31.58
2022-08-17T22:47:19.166Z,34.90
2022-08-17T22:49:54.714Z,35.67
2022-08-17T22:52:32.177Z,34.55
2022-08-17T22:55:33.637Z,37.30
2022-08-17T22:58:19.821Z,28.25
2022-08-17T23:00:49.416Z,39.45
2022-08-17T23:03:18.964Z,30.33
2022-08-17T23:06:11.135Z,42.58
2022-08-17T23:09:05.183Z,41.50
2022-08-17T23:11:58.565Z,29.80
2022-08-17T23:14:31.664Z,38.33
2022-08-17T23:17:02.182Z,35.95
2022-08-17T23:19:31.391Z,30.95
2022-08-17T23:21:59.350Z,31.77
2022-08-17T23:24:28.971Z,31.58
2022-08-17T23:26:59.305Z,39.03
2022-08-17T23:29:29.376Z,38.25
2022-08-17T23:31:59.692Z,35.17
2022-08-17T23:34:28.053Z,45.67
2022-08-17T23:36:56.147Z,33.60
2022-08-17T23:39:27.385Z,39.63
2022-08-17T23:41:57.980Z,37.42
2022-08-17T23:44:25.289Z,40.28
2022-08-17T23:46:52.832Z,40.85
2022-08-17T23:49:19.785Z,39.58
2022-08-17T23:51:48.652Z,37.33
2022-08-17T23:54:20.852Z,37.05
2022-08-17T23:56:47.516Z,37.65
2022-08-17T23:59:16.469Z,41.67
